x

Northern Hawaii One - 245nm Ne Of Honolulu Hi (51000) Wave Buoy

9:50am - Fri 25th Jul 2014 All times are HST. -10 hours from GMT.

  • Sig Wave height 5.6ft
  • Peak Period 7s
  • Average Period 5s
  • Wind
    18mph, 20mph gusts
  • Sea Temp 74°f
  • Air Temp 72°f
  • Sea Pressure 1023.3mb
  • Northern Hawaii One - 245nm Ne Of Honolulu Hi
  • Northern Hawaii One - 245nm Ne Of Honolulu Hi

More Historic Weather Station data

Upgrade to MSW Pro to gain access to the past 30 days of data for over 8000 Wavebouys and Weather Stations around the globe.

Join Pro

Comparision Forecast

View Surf forecast
   
Fri 07/25 9:50am 5.5ft 7s 5s 18 20 mph 1023.3mb 74f 72f
8:50am 5.5ft 7s 5s 16 18 mph 1023.3mb 73f 72f
7:50am 5.5ft 7s 5s 16 18 mph 1023.3mb 73f 72f
6:50am 5.5ft 7s 5s 16 18 mph 1023.1mb 73f 72f
5:50am  -   -   -  16 18 mph 1022.8mb 73f 72f
4:50am  -   -   -  11 16 mph 1022.7mb 73f 69f
3:50am  -   -   -  18 20 mph 1022.4mb 73f 70f
2:50am  -   -   -  16 18 mph 1022.4mb 73f 70f
1:50am  -   -   -  16 18 mph 1022.4mb 73f 71f
12:50am 5ft 6s 5s 16 18 mph 1022.7mb 73f 71f
Thu 07/24 10:50pm  -   -   -  16 20 mph 1023.7mb 74f 72f
9:50pm  -   -   -  16 18 mph 1023.9mb 74f 72f
8:50pm 4.5ft 7s 5s 13 18 mph 1024mb 74f 72f
7:50pm 4.5ft 6s 5s 16 18 mph 1023.5mb 74f 73f
6:50pm  -   -   -  16 20 mph 1023.3mb 74f 72f
5:50pm  -   -   -  16 18 mph 1023mb 74f 72f
4:50pm 5ft 7s 5s 13 18 mph 1022.7mb 74f 72f
3:50pm 5ft 6s 5s 16 20 mph 1022.7mb 74f 72f
2:50pm 5ft 6s 5s 13 18 mph 1023.1mb 74f 70f
1:50pm 5.5ft 6s 5s 16 18 mph 1023.3mb 74f 71f
12:50pm 5ft 6s 5s 18 20 mph 1023.7mb 74f 72f
11:50am 5ft 6s 5s 13 18 mph 1024.2mb 74f 71f
10:50am 5ft 7s 5s 16 20 mph 1024.5mb 74f 71f
9:50am 5ft 6s 5s 16 20 mph 1024.6mb 74f 72f
7:50am 4.5ft 7s 5s 16 20 mph 1024.6mb 73f 72f
6:50am 5ft 7s 5s 18 20 mph 1024.6mb 73f 72f
5:50am 5ft 6s 5s 18 20 mph 1024.3mb 73f 72f
4:50am 4.5ft 7s 5s 18 20 mph 1024.2mb 73f 71f
3:50am 5ft 6s 5s 11 13 mph 1023.9mb 73f 71f
2:50am 5ft 7s 5s 13 16 mph 1023.8mb 73f 71f
1:50am 4.5ft 6s 5s 13 16 mph 1023.8mb 73f 72f
12:50am  -   -   -  13 16 mph 1023.9mb 73f 71f
Wed 07/23 11:50pm 5ft 7s 5s 16 18 mph 1024.3mb 73f 71f
10:50pm 4.5ft 7s 5s 16 20 mph 1024.4mb 73f 72f
9:50pm  -   -   -  16 20 mph 1024.6mb 73f 72f
8:50pm  -   -   -  16 20 mph 1024.3mb 73f 72f
7:50pm 4.5ft 7s 5s 16 18 mph 1024mb 74f 72f
6:50pm 4.5ft 6s 5s 16 20 mph 1023.4mb 74f 71f
5:50pm 5ft 7s 5s 18 22 mph 1023.1mb 74f 71f
4:50pm 5ft 7s 5s 16 18 mph 1022.9mb 74f 72f
3:50pm 5ft 7s 5s 18 20 mph 1022.6mb 74f 72f
2:50pm 4.5ft 6s 5s 16 20 mph 1022.9mb 74f 71f
1:50pm 4.5ft 7s 5s 16 20 mph 1023.2mb 74f 71f
12:50pm 4.5ft 7s 5s 16 20 mph 1023.3mb 74f 70f
11:50am 4.5ft 7s 5s 16 20 mph 1023.3mb 74f 71f
10:50am 4.5ft 7s 5s 13 16 mph 1023.6mb 73f 71f
9:50am 4.5ft 7s 5s 9 16 mph 1023.8mb 73f 69f
8:50am 4.5ft 7s 5s 13 18 mph 1023.6mb 73f 71f
7:50am 4.5ft 7s 5s 16 18 mph 1023.3mb 73f 71f
6:50am 4.5ft 7s 5s 13 18 mph 1023.2mb 73f 72f
5:50am 4.5ft 8s 5s 9 11 mph 1022.7mb 73f 72f
4:50am 4.5ft 7s 5s 16
mph
1022.3mb 73f 71f
3:50am 4.5ft 8s 5s 4 9 mph 1022.1mb 73f 69f
2:50am 4.5ft 7s 5s 16 18 mph 1021.8mb 73f 70f
1:50am 4.5ft 7s 5s 9 11 mph 1022.1mb 73f 70f
12:50am 4ft 7s 5s 16 18 mph 1022.1mb 73f 70f
Tue 07/22 11:50pm 4ft 8s 5s 9 13 mph 1022.5mb 73f 70f
10:50pm  -   -   -  18 20 mph 1022.5mb 73f 69f
9:50pm 4ft 8s 5s 13 16 mph 1022.6mb 74f 72f
8:50pm 3.5ft 8s 5s 18 20 mph 1022.3mb 74f 71f
7:50pm 4ft 8s 5s 11 13 mph 1021.9mb 74f 72f
6:50pm 4ft 8s 6s 11 13 mph 1021.2mb 74f 72f
5:50pm 4ft 8s 6s 7 11 mph 1021mb 74f 72f
4:50pm 4.5ft 8s 6s 7 11 mph 1020.7mb 74f 73f
3:50pm 4ft 7s 6s 9 11 mph 1020.9mb 74f 72f
2:50pm 4.5ft 8s 6s 9 13 mph 1021.2mb 74f 72f
1:50pm 4.5ft 8s 6s 7 9 mph 1021.6mb 74f 72f
12:50pm 4.5ft 8s 6s 9 11 mph 1022mb 74f 72f
11:50am 5ft 8s 6s 7 9 mph 1022.3mb 74f 72f
10:50am 4.5ft 8s 6s 7 9 mph 1022.5mb 74f 71f
9:50am  -   -   -  9 11 mph 1022.5mb 73f 71f
8:50am 5ft 8s 6s 9 11 mph 1022.6mb 73f 71f
7:50am 4.5ft 8s 6s 7 9 mph 1022.6mb 73f 71f
6:50am 5.5ft 8s 6s 9 11 mph 1022.7mb 73f 71f
5:50am 5ft 9s 6s 9 11 mph 1022.4mb 73f 71f
4:50am 5ft 8s 6s 11 13 mph 1022.2mb 73f 71f
3:50am 5ft 8s 6s 11 13 mph 1022.1mb 73f 71f
2:50am 5ft 8s 6s 11 13 mph 1022.1mb 73f 72f
1:50am 5ft 8s 6s 13 16 mph 1022.3mb 73f 72f
12:50am 5ft 8s 6s 13 18 mph 1022.8mb 73f 72f
Mon 07/21 11:50pm 5.5ft 8s 6s 13 18 mph 1023mb 73f 72f
10:50pm 5.5ft 9s 6s 11 16 mph 1023.4mb 73f 72f
9:50pm 5.5ft 8s 6s 13 16 mph 1023.4mb 73f 72f